Time;durP1;ratioP1;P1;durP2;ratioP2;P2;SDS_P1;SDS_P2;PMS_P1;PMS_P2;Temp;Humidity;BMP_temperature;BMP_pressure;BME280_temperature;BME280_humidity;BME280_pressure;Samples;Min_cycle;Max_cycle;Signal;HPM_P1;HPM_P2
2021/03/16 00:00:19;;;;;;;1.52;0.60;;;23.30;67.00;;;;;;5069564;28;20495;-68
2021/03/16 00:02:47;;;;;;;1.40;0.60;;;23.60;66.90;;;;;;5063217;28;20024;-68
2021/03/16 00:05:14;;;;;;;4.93;0.70;;;23.80;66.00;;;;;;5039195;28;20173;-68
2021/03/16 00:07:42;;;;;;;2.00;0.50;;;24.20;65.40;;;;;;5058261;28;20033;-69
2021/03/16 00:10:10;;;;;;;2.60;0.65;;;24.30;65.60;;;;;;5058706;28;20107;-70
2021/03/16 00:12:37;;;;;;;2.35;0.47;;;24.90;65.30;;;;;;5056891;28;20032;-69
2021/03/16 00:15:05;;;;;;;2.50;0.80;;;25.80;63.70;;;;;;5055082;28;20131;-68
2021/03/16 00:17:32;;;;;;;3.78;0.50;;;25.90;61.30;;;;;;5056229;28;20025;-69
2021/03/16 00:20:00;;;;;;;1.92;0.60;;;25.80;61.00;;;;;;5060437;28;20039;-68
2021/03/16 00:22:27;;;;;;;2.70;0.40;;;25.60;62.10;;;;;;5068698;28;20374;-70
2021/03/16 00:24:55;;;;;;;3.30;1.00;;;25.40;62.40;;;;;;5057467;28;20496;-69
2021/03/16 00:27:22;;;;;;;3.15;0.57;;;25.20;63.10;;;;;;5054510;28;20028;-68
2021/03/16 00:29:51;;;;;;;5.38;0.68;;;24.90;62.80;;;;;;5054392;28;20785;-71
2021/03/16 00:32:18;;;;;;;1.35;0.40;;;24.70;64.20;;;;;;5063656;28;20037;-71
2021/03/16 00:34:45;;;;;;;2.80;1.52;;;24.70;64.50;;;;;;5061438;28;20215;-68
2021/03/16 00:37:16;;;;;;;2.28;0.88;;;24.70;63.50;;;;;;5049596;28;20048;-69
2021/03/16 00:39:43;;;;;;;3.08;0.80;;;24.40;64.10;;;;;;5055241;28;20032;-67
2021/03/16 00:42:11;;;;;;;0.93;0.60;;;24.20;65.70;;;;;;5055236;28;21421;-70
2021/03/16 00:44:38;;;;;;;1.92;0.30;;;24.00;65.50;;;;;;5053561;28;20037;-71
2021/03/16 00:47:05;;;;;;;1.98;0.40;;;23.90;66.00;;;;;;5061181;28;20501;-68
2021/03/16 00:49:33;;;;;;;2.60;0.30;;;23.80;66.50;;;;;;5055765;28;20036;-70
2021/03/16 00:52:01;;;;;;;1.50;1.17;;;23.70;67.00;;;;;;5051333;28;20027;-71
2021/03/16 00:54:29;;;;;;;3.03;0.50;;;23.70;67.60;;;;;;5061966;28;20037;-67
2021/03/16 00:56:56;;;;;;;1.65;0.30;;;23.80;68.50;;;;;;5056323;28;20414;-68
2021/03/16 00:59:23;;;;;;;1.77;0.47;;;24.10;67.00;;;;;;5064496;28;20096;-69
2021/03/16 01:01:51;;;;;;;1.73;0.40;;;24.40;66.80;;;;;;5051704;28;20115;-68
2021/03/16 01:04:18;;;;;;;0.47;0.20;;;24.30;67.00;;;;;;5057136;28;20609;-68
2021/03/16 01:06:46;;;;;;;1.85;0.32;;;24.10;68.30;;;;;;5053652;28;20092;-69
2021/03/16 01:09:14;;;;;;;5.68;0.30;;;24.10;67.50;;;;;;5056665;28;20627;-69
2021/03/16 01:11:41;;;;;;;0.82;0.20;;;24.00;67.90;;;;;;5056631;28;20038;-72
2021/03/16 01:14:09;;;;;;;0.75;0.20;;;23.80;68.00;;;;;;5056493;28;20352;-69
2021/03/16 01:16:36;;;;;;;2.67;0.22;;;23.70;68.90;;;;;;5062821;28;20024;-69
2021/03/16 01:19:04;;;;;;;3.40;0.40;;;23.60;69.30;;;;;;5064417;28;20169;-69
2021/03/16 01:21:31;;;;;;;2.20;0.40;;;23.40;69.80;;;;;;5054432;28;20036;-68
2021/03/16 01:23:58;;;;;;;0.68;0.30;;;23.20;70.40;;;;;;5054058;28;20150;-71
2021/03/16 01:26:26;;;;;;;0.57;0.20;;;23.00;71.10;;;;;;5053452;28;20048;-68
2021/03/16 01:28:53;;;;;;;3.10;0.57;;;22.90;71.50;;;;;;5057957;28;20131;-71
2021/03/16 01:31:20;;;;;;;3.05;0.40;;;22.90;72.00;;;;;;5053550;28;20044;-68
2021/03/16 01:33:48;;;;;;;0.68;0.20;;;22.80;72.20;;;;;;5035561;28;20040;-68
2021/03/16 01:36:15;;;;;;;0.50;0.20;;;22.80;72.50;;;;;;5056944;28;20056;-70
2021/03/16 01:38:42;;;;;;;2.40;0.20;;;22.90;71.90;;;;;;5053957;28;20040;-69
2021/03/16 01:41:10;;;;;;;0.20;0.10;;;22.90;72.50;;;;;;5057353;28;20040;-67
2021/03/16 01:43:37;;;;;;;0.73;0.17;;;23.00;72.30;;;;;;5056103;28;20065;-67
2021/03/16 01:46:06;;;;;;;1.23;0.20;;;23.00;71.40;;;;;;5053851;28;20083;-71
2021/03/16 01:48:35;;;;;;;0.63;0.28;;;23.00;70.90;;;;;;5039140;28;20033;-68
2021/03/16 01:51:07;;;;;;;3.17;0.30;;;23.10;70.90;;;;;;5054202;28;20039;-68
2021/03/16 01:53:35;;;;;;;0.82;0.20;;;23.10;70.90;;;;;;5055107;28;20039;-69
2021/03/16 01:56:04;;;;;;;0.70;0.28;;;23.10;70.80;;;;;;5070450;28;20045;-69
2021/03/16 01:58:31;;;;;;;2.40;0.43;;;23.00;71.30;;;;;;5060799;28;20043;-72
2021/03/16 02:00:59;;;;;;;0.38;0.20;;;23.00;70.40;;;;;;5065857;28;20355;-68
2021/03/16 02:03:27;;;;;;;2.53;0.25;;;22.90;71.50;;;;;;5066228;28;20027;-72
2021/03/16 02:05:58;;;;;;;1.17;0.20;;;23.00;71.40;;;;;;5067522;28;20035;-70
2021/03/16 02:08:47;;;;;;;1.40;0.30;;;23.10;71.90;;;;;;5061761;28;20025;-72
2021/03/16 02:11:39;;;;;;;1.13;0.32;;;23.00;70.70;;;;;;5068761;28;20081;-70
2021/03/16 02:14:25;;;;;;;0.82;0.25;;;23.10;70.70;;;;;;5066029;28;20032;-69
2021/03/16 02:17:18;;;;;;;3.33;0.60;;;23.00;70.80;;;;;;5065646;28;20097;-69
2021/03/16 02:20:07;;;;;;;0.45;0.30;;;23.10;72.40;;;;;;5063812;28;20113;-74
2021/03/16 02:22:39;;;;;;;1.63;0.30;;;23.10;71.40;;;;;;5070747;28;20118;-69
2021/03/16 02:25:34;;;;;;;2.47;0.50;;;23.00;71.20;;;;;;5077831;28;20043;-72
2021/03/16 02:28:20;;;;;;;1.85;0.20;;;22.90;72.10;;;;;;5062875;28;20032;-70
2021/03/16 02:30:48;;;;;;;1.23;0.20;;;22.80;71.50;;;;;;5069413;28;20379;-71
2021/03/16 02:33:21;;;;;;;1.27;0.20;;;22.70;72.30;;;;;;5073925;28;20037;-69
2021/03/16 02:35:50;;;;;;;1.75;0.40;;;22.70;72.40;;;;;;5077656;28;20028;-69
2021/03/16 02:38:30;;;;;;;0.47;0.30;;;22.60;72.30;;;;;;5072576;28;20500;-68
2021/03/16 02:41:01;;;;;;;3.42;0.38;;;22.50;72.90;;;;;;5060226;28;20032;-69
2021/03/16 02:43:30;;;;;;;1.65;0.30;;;22.40;74.00;;;;;;5065195;28;20024;-72
2021/03/16 02:45:58;;;;;;;1.10;0.45;;;22.50;73.30;;;;;;5062626;28;20390;-68
2021/03/16 02:48:28;;;;;;;2.92;0.55;;;22.40;73.30;;;;;;5069842;28;20108;-69
2021/03/16 02:50:57;;;;;;;2.38;0.50;;;22.40;73.90;;;;;;5066563;28;20028;-70
2021/03/16 02:53:26;;;;;;;2.60;0.30;;;22.30;74.40;;;;;;5066338;28;20016;-71
2021/03/16 02:55:55;;;;;;;2.58;0.60;;;22.30;73.80;;;;;;5067892;28;20087;-68
2021/03/16 02:58:25;;;;;;;1.83;0.47;;;22.30;74.50;;;;;;5077185;28;20022;-71
2021/03/16 03:00:52;;;;;;;3.50;0.50;;;22.30;74.50;;;;;;5067243;28;20047;-69
2021/03/16 03:03:23;;;;;;;2.42;0.88;;;22.30;75.20;;;;;;5064274;28;20411;-70
2021/03/16 03:05:53;;;;;;;3.03;0.65;;;22.40;74.50;;;;;;5066173;28;20376;-70
2021/03/16 03:08:22;;;;;;;3.42;0.60;;;22.40;74.20;;;;;;5067144;28;20119;-70
2021/03/16 03:10:50;;;;;;;2.83;1.38;;;22.40;74.50;;;;;;5061269;28;20043;-71
2021/03/16 03:13:17;;;;;;;3.13;0.40;;;22.60;74.40;;;;;;5065539;28;20474;-68
2021/03/16 03:15:46;;;;;;;2.35;0.50;;;22.70;74.00;;;;;;5074838;28;20065;-71
2021/03/16 03:18:13;;;;;;;3.78;0.85;;;22.70;75.00;;;;;;5074312;28;20066;-69
2021/03/16 03:20:41;;;;;;;4.18;0.50;;;22.60;74.50;;;;;;5069926;28;20051;-71
2021/03/16 03:23:23;;;;;;;3.05;0.50;;;22.60;75.20;;;;;;5066222;28;20405;-72
2021/03/16 03:26:09;;;;;;;1.73;0.55;;;22.50;76.60;;;;;;5072303;28;20024;-71
2021/03/16 03:28:37;;;;;;;2.73;0.60;;;22.40;76.80;;;;;;5069091;28;20020;-69
2021/03/16 03:31:08;;;;;;;1.90;0.47;;;22.40;78.80;;;;;;5072409;28;20342;-71
2021/03/16 03:33:39;;;;;;;2.67;0.77;;;22.40;79.90;;;;;;5068373;28;20036;-71
2021/03/16 03:36:07;;;;;;;2.30;0.93;;;22.50;80.60;;;;;;5071452;28;20036;-68
2021/03/16 03:38:35;;;;;;;1.38;0.35;;;22.50;80.80;;;;;;5066026;28;20481;-72
2021/03/16 03:41:05;;;;;;;0.90;0.30;;;22.40;78.50;;;;;;5074127;28;20075;-70
2021/03/16 03:43:35;;;;;;;1.88;0.30;;;22.30;79.70;;;;;;5079053;28;20467;-70
2021/03/16 03:46:03;;;;;;;0.57;0.30;;;22.00;79.70;;;;;;5074200;28;20032;-70
2021/03/16 03:48:32;;;;;;;1.48;0.43;;;21.90;80.70;;;;;;5073173;28;20028;-69
2021/03/16 03:51:02;;;;;;;0.70;0.30;;;21.70;83.80;;;;;;5065435;28;20027;-69
2021/03/16 03:53:31;;;;;;;0.68;0.20;;;21.60;82.80;;;;;;5047233;28;20470;-72
2021/03/16 03:56:00;;;;;;;0.38;0.20;;;21.40;83.20;;;;;;5066658;28;20036;-69
2021/03/16 03:58:29;;;;;;;1.75;0.30;;;21.30;84.10;;;;;;5068676;28;20047;-68
2021/03/16 04:00:57;;;;;;;1.10;0.28;;;21.40;84.90;;;;;;5064038;28;20032;-68
2021/03/16 04:03:25;;;;;;;1.20;0.22;;;21.60;85.10;;;;;;5073916;28;20033;-69
2021/03/16 04:05:53;;;;;;;0.28;0.10;;;21.70;85.70;;;;;;5053305;28;20036;-68
2021/03/16 04:08:23;;;;;;;0.40;0.20;;;21.80;84.30;;;;;;5073153;28;20036;-71
2021/03/16 04:10:50;;;;;;;0.47;0.22;;;21.90;82.90;;;;;;5066781;28;20060;-71
2021/03/16 04:13:18;;;;;;;1.65;0.30;;;21.90;82.00;;;;;;5070074;28;20069;-71
2021/03/16 04:15:46;;;;;;;1.85;0.60;;;21.90;80.40;;;;;;5062739;28;20227;-69
2021/03/16 04:18:14;;;;;;;0.93;0.30;;;21.80;79.60;;;;;;5070747;28;20036;-69
2021/03/16 04:20:44;;;;;;;1.38;0.30;;;21.90;80.30;;;;;;5070850;28;20024;-68
2021/03/16 04:23:12;;;;;;;1.08;0.40;;;21.80;80.10;;;;;;5062087;28;20035;-70
2021/03/16 04:25:40;;;;;;;0.75;0.30;;;21.60;81.10;;;;;;5062332;28;20038;-69
2021/03/16 04:28:07;;;;;;;0.77;0.32;;;21.60;82.00;;;;;;5066411;28;20366;-69
2021/03/16 04:30:34;;;;;;;4.32;0.47;;;21.50;81.20;;;;;;5072953;28;20106;-70
2021/03/16 04:33:05;;;;;;;1.20;0.30;;;21.40;82.50;;;;;;5074477;28;20093;-68
2021/03/16 04:35:32;;;;;;;2.38;0.40;;;21.40;82.20;;;;;;5057695;28;20043;-69
2021/03/16 04:37:59;;;;;;;2.47;0.30;;;21.40;82.00;;;;;;5060624;28;20040;-69
2021/03/16 04:40:28;;;;;;;1.98;0.55;;;21.40;81.60;;;;;;5066545;28;20037;-68
2021/03/16 04:42:55;;;;;;;3.10;0.40;;;21.30;81.40;;;;;;5066465;28;20048;-68
2021/03/16 04:45:23;;;;;;;1.30;0.50;;;21.40;81.20;;;;;;5065991;28;20578;-69
2021/03/16 04:47:50;;;;;;;2.13;0.52;;;21.30;82.50;;;;;;5074368;28;20502;-70
2021/03/16 04:50:17;;;;;;;1.75;0.45;;;21.30;84.00;;;;;;5046196;28;20028;-69
2021/03/16 04:52:45;;;;;;;3.55;0.40;;;21.30;84.20;;;;;;5066087;28;20044;-68
2021/03/16 04:55:13;;;;;;;2.78;0.52;;;21.30;86.10;;;;;;5074809;28;20075;-68
2021/03/16 04:57:44;;;;;;;1.40;0.52;;;21.40;85.20;;;;;;5069843;28;20157;-70
2021/03/16 05:00:12;;;;;;;1.98;0.60;;;21.50;85.90;;;;;;5076549;28;20039;-69
2021/03/16 05:02:39;;;;;;;2.88;0.60;;;21.40;86.70;;;;;;5069875;28;20024;-69
2021/03/16 05:05:07;;;;;;;1.50;0.40;;;21.30;86.10;;;;;;5072659;28;20123;-69
2021/03/16 05:07:36;;;;;;;1.67;0.50;;;21.20;87.20;;;;;;5069638;28;20075;-69
2021/03/16 05:10:04;;;;;;;0.93;0.40;;;21.10;88.50;;;;;;5070089;28;20427;-69
2021/03/16 05:12:32;;;;;;;1.67;0.50;;;21.10;87.90;;;;;;5063948;28;20029;-70
2021/03/16 05:14:59;;;;;;;2.47;0.45;;;21.10;87.50;;;;;;5067848;28;20126;-68
2021/03/16 05:17:26;;;;;;;4.15;1.15;;;21.00;87.50;;;;;;5073103;28;20020;-69
2021/03/16 05:19:54;;;;;;;1.58;0.50;;;20.90;87.50;;;;;;5068466;28;20458;-68
2021/03/16 05:22:21;;;;;;;1.00;0.52;;;20.90;87.90;;;;;;5065509;28;20107;-72
2021/03/16 05:24:49;;;;;;;1.20;0.50;;;21.00;87.90;;;;;;5061556;28;20109;-69
2021/03/16 05:27:16;;;;;;;1.48;0.50;;;21.10;88.30;;;;;;5062778;28;20111;-70
2021/03/16 05:29:43;;;;;;;1.88;0.60;;;21.30;88.00;;;;;;5065836;28;20457;-71
2021/03/16 05:32:11;;;;;;;2.83;0.50;;;21.30;86.80;;;;;;5072171;28;21109;-69
2021/03/16 05:34:38;;;;;;;3.05;0.52;;;21.30;86.00;;;;;;5076761;28;20048;-73
2021/03/16 05:37:05;;;;;;;2.40;0.50;;;21.40;86.10;;;;;;5060036;28;20385;-69
2021/03/16 05:39:33;;;;;;;1.95;0.40;;;21.30;85.80;;;;;;5064813;28;20024;-69
2021/03/16 05:42:01;;;;;;;4.15;0.80;;;21.20;86.50;;;;;;5065875;28;20437;-68
2021/03/16 05:44:29;;;;;;;2.15;0.57;;;21.30;85.10;;;;;;5060804;28;20032;-69
2021/03/16 05:46:57;;;;;;;6.70;0.73;;;21.30;86.00;;;;;;5047364;28;20028;-71
2021/03/16 05:49:25;;;;;;;2.03;0.63;;;21.30;86.00;;;;;;5076381;28;20539;-71
2021/03/16 05:51:53;;;;;;;5.13;0.80;;;21.30;85.50;;;;;;5072096;28;20107;-70
2021/03/16 05:54:21;;;;;;;3.05;0.70;;;21.30;85.50;;;;;;5077325;28;20048;-67
2021/03/16 05:56:48;;;;;;;3.90;0.70;;;21.20;85.80;;;;;;5068914;28;20578;-68
2021/03/16 05:59:17;;;;;;;4.93;1.45;;;21.10;85.70;;;;;;5081085;28;20036;-71
2021/03/16 06:01:44;;;;;;;1.88;0.73;;;21.10;86.10;;;;;;5074400;28;20036;-72
2021/03/16 06:04:12;;;;;;;2.75;0.75;;;21.00;86.90;;;;;;5068218;28;20036;-70
2021/03/16 06:06:39;;;;;;;3.85;0.80;;;20.80;89.10;;;;;;5076912;28;20032;-71
2021/03/16 06:09:07;;;;;;;2.15;0.90;;;20.60;89.80;;;;;;5080058;28;20020;-70
2021/03/16 06:11:34;;;;;;;4.45;1.10;;;20.50;90.20;;;;;;5070813;28;20073;-70
2021/03/16 06:14:02;;;;;;;1.63;0.88;;;20.40;90.90;;;;;;5068866;28;20120;-69
2021/03/16 06:16:37;;;;;;;4.63;1.38;;;20.40;91.00;;;;;;5069910;28;20123;-70
2021/03/16 06:19:04;;;;;;;2.42;0.80;;;20.30;91.10;;;;;;5062850;28;20028;-69
2021/03/16 06:21:32;;;;;;;0.88;0.40;;;20.20;91.00;;;;;;5069032;28;20393;-68
2021/03/16 06:24:00;;;;;;;1.08;0.50;;;20.10;91.00;;;;;;5077095;28;20038;-69
2021/03/16 06:26:33;;;;;;;1.58;0.70;;;20.10;90.90;;;;;;5071810;28;20028;-69
2021/03/16 06:29:08;;;;;;;1.08;0.60;;;20.10;91.50;;;;;;5067430;28;20490;-70
2021/03/16 06:31:36;;;;;;;1.83;1.48;;;20.10;91.20;;;;;;5064500;28;20029;-69
2021/03/16 06:34:04;;;;;;;2.63;0.85;;;20.10;91.20;;;;;;5069812;28;20048;-69
2021/03/16 06:36:34;;;;;;;1.75;1.00;;;20.10;91.10;;;;;;5065636;28;20208;-69
2021/03/16 06:39:03;;;;;;;2.28;1.10;;;20.20;91.40;;;;;;5078544;28;20723;-69
2021/03/16 06:41:36;;;;;;;3.30;1.33;;;20.20;91.20;;;;;;5062125;28;20751;-69
2021/03/16 06:44:05;;;;;;;2.30;0.88;;;20.20;91.00;;;;;;5063868;28;20021;-70
2021/03/16 06:46:34;;;;;;;1.73;0.63;;;20.20;91.20;;;;;;5054730;28;20029;-71
2021/03/16 06:49:19;;;;;;;1.52;0.50;;;20.30;91.10;;;;;;5059312;28;20077;-70
2021/03/16 06:51:50;;;;;;;0.70;0.38;;;20.30;91.10;;;;;;5067800;28;20028;-69
2021/03/16 06:54:20;;;;;;;0.73;0.30;;;20.30;91.10;;;;;;5069299;28;20035;-69
2021/03/16 06:57:09;;;;;;;1.42;0.40;;;20.30;91.20;;;;;;5057237;28;20051;-69
2021/03/16 06:59:36;;;;;;;2.60;0.43;;;20.40;91.20;;;;;;5061676;28;20052;-70
2021/03/16 07:02:15;;;;;;;1.48;0.60;;;20.40;91.10;;;;;;5078466;28;20078;-69
2021/03/16 07:04:46;;;;;;;0.77;0.70;;;20.20;90.80;;;;;;5066472;28;20040;-70
2021/03/16 07:07:15;;;;;;;2.13;0.82;;;20.20;91.20;;;;;;5067751;28;20817;-70
2021/03/16 07:09:44;;;;;;;4.20;1.10;;;20.20;91.20;;;;;;5060499;28;20038;-69
2021/03/16 07:12:12;;;;;;;1.27;0.65;;;20.20;91.30;;;;;;5050265;28;20038;-70
2021/03/16 07:14:42;;;;;;;1.13;0.50;;;20.10;91.60;;;;;;5055843;28;20039;-70
2021/03/16 07:17:09;;;;;;;2.10;1.00;;;20.10;91.40;;;;;;5060444;28;20028;-70
2021/03/16 07:19:39;;;;;;;2.38;1.05;;;20.20;91.50;;;;;;5062681;28;20028;-70
2021/03/16 07:22:16;;;;;;;1.63;1.00;;;20.30;91.10;;;;;;5065609;28;20054;-70
2021/03/16 07:24:45;;;;;;;2.08;1.23;;;20.30;91.30;;;;;;5071584;28;20170;-70
2021/03/16 07:27:12;;;;;;;2.38;0.55;;;20.30;91.20;;;;;;5061690;28;23151;-70
2021/03/16 07:29:40;;;;;;;3.70;0.50;;;20.30;91.10;;;;;;5067610;28;20049;-70
2021/03/16 07:32:09;;;;;;;1.10;1.00;;;20.30;91.30;;;;;;5067491;28;20032;-70
2021/03/16 07:34:37;;;;;;;1.20;0.40;;;20.30;91.30;;;;;;5059123;28;20028;-70
2021/03/16 07:37:07;;;;;;;2.65;0.70;;;20.30;91.30;;;;;;5064198;28;20039;-70
2021/03/16 07:39:35;;;;;;;0.85;0.30;;;20.40;91.30;;;;;;5074669;28;20036;-70
2021/03/16 07:42:03;;;;;;;1.05;0.70;;;20.40;91.00;;;;;;5060725;28;20044;-71
2021/03/16 07:44:42;;;;;;;1.55;0.35;;;20.40;91.10;;;;;;5059152;28;20024;-70
2021/03/16 07:47:10;;;;;;;0.38;0.38;;;20.40;90.80;;;;;;5057332;28;20078;-69
2021/03/16 07:49:39;;;;;;;1.02;0.38;;;20.40;91.00;;;;;;5064268;28;20028;-69
2021/03/16 07:52:22;;;;;;;0.63;0.40;;;20.40;91.10;;;;;;5062470;28;20028;-69
2021/03/16 07:54:54;;;;;;;1.20;0.60;;;20.20;91.30;;;;;;5064891;28;20044;-69
2021/03/16 07:57:34;;;;;;;0.80;0.60;;;20.10;91.70;;;;;;5076054;28;20029;-70
2021/03/16 08:00:07;;;;;;;1.02;0.63;;;20.00;91.90;;;;;;5066551;28;20051;-70
2021/03/16 08:02:37;;;;;;;2.47;0.60;;;19.90;92.10;;;;;;5056562;28;20029;-70
2021/03/16 08:05:18;;;;;;;4.25;1.05;;;19.90;92.20;;;;;;5064083;28;20086;-69
2021/03/16 08:07:46;;;;;;;0.85;0.70;;;19.90;92.10;;;;;;5062956;28;20032;-69
2021/03/16 08:10:13;;;;;;;1.90;0.75;;;20.00;92.10;;;;;;5058390;28;20028;-68
2021/03/16 08:12:43;;;;;;;2.05;0.70;;;20.00;92.10;;;;;;5061215;28;20127;-67
2021/03/16 08:15:15;;;;;;;1.17;0.52;;;19.90;92.20;;;;;;5066666;28;20090;-67
2021/03/16 08:17:43;;;;;;;1.48;0.60;;;19.90;92.40;;;;;;5066821;28;20033;-68
2021/03/16 08:20:21;;;;;;;1.60;0.63;;;20.00;92.20;;;;;;5060145;28;20052;-69
2021/03/16 08:22:50;;;;;;;4.38;1.10;;;20.00;92.20;;;;;;5067300;28;20031;-69
2021/03/16 08:25:18;;;;;;;6.53;1.73;;;19.90;92.50;;;;;;5067482;28;20573;-69
2021/03/16 08:27:50;;;;;;;3.35;0.90;;;19.80;92.50;;;;;;5064182;28;20032;-69
2021/03/16 08:30:19;;;;;;;5.70;1.50;;;19.60;92.60;;;;;;5072341;28;20669;-69
2021/03/16 08:32:48;;;;;;;6.10;1.15;;;19.80;92.30;;;;;;5066879;28;20054;-69
2021/03/16 08:35:19;;;;;;;2.20;1.30;;;20.10;91.70;;;;;;5066106;28;20044;-69
2021/03/16 08:37:51;;;;;;;2.85;0.95;;;19.90;92.10;;;;;;5061961;28;20031;-70
2021/03/16 08:40:25;;;;;;;7.97;1.48;;;19.90;92.20;;;;;;5068799;28;20040;-69
2021/03/16 08:42:53;;;;;;;1.23;0.80;;;19.80;92.40;;;;;;5065857;28;20086;-70
2021/03/16 08:45:33;;;;;;;1.75;0.80;;;19.80;92.50;;;;;;5068275;28;20425;-70
2021/03/16 08:48:00;;;;;;;3.45;1.52;;;19.90;92.30;;;;;;5066790;28;20025;-68
2021/03/16 08:50:29;;;;;;;2.45;0.90;;;19.60;92.70;;;;;;5067930;28;20040;-68
2021/03/16 08:52:57;;;;;;;3.40;1.00;;;19.50;92.80;;;;;;5066201;28;20510;-69
2021/03/16 08:55:26;;;;;;;1.58;0.95;;;19.50;93.10;;;;;;5065506;28;20065;-70
2021/03/16 08:57:56;;;;;;;2.38;0.63;;;19.50;93.20;;;;;;5066106;28;20551;-68
2021/03/16 09:00:26;;;;;;;1.48;0.50;;;19.50;93.40;;;;;;5060601;28;20079;-69
2021/03/16 09:02:54;;;;;;;1.42;0.47;;;19.50;93.40;;;;;;5067308;28;20024;-68
2021/03/16 09:05:26;;;;;;;1.83;0.50;;;19.50;93.50;;;;;;5073656;28;20252;-68
2021/03/16 09:07:59;;;;;;;2.00;0.45;;;19.50;93.40;;;;;;5062120;28;20044;-67
2021/03/16 09:10:28;;;;;;;0.80;0.47;;;19.50;93.20;;;;;;5063128;28;20099;-67
2021/03/16 09:12:55;;;;;;;2.10;0.60;;;19.40;93.30;;;;;;5071676;28;20749;-68
2021/03/16 09:15:31;;;;;;;2.03;0.77;;;19.40;93.40;;;;;;5064517;28;20074;-67
2021/03/16 09:18:03;;;;;;;2.60;0.50;;;19.30;93.60;;;;;;5059151;28;20112;-69
2021/03/16 09:20:35;;;;;;;0.50;0.40;;;19.40;93.70;;;;;;5062513;28;20044;-68
2021/03/16 09:23:13;;;;;;;0.60;0.40;;;19.30;93.70;;;;;;5061740;28;20028;-67
2021/03/16 09:25:46;;;;;;;0.88;0.65;;;19.40;93.50;;;;;;5067394;28;20028;-68
2021/03/16 09:28:15;;;;;;;3.22;0.80;;;19.50;93.60;;;;;;5060820;28;20058;-69
2021/03/16 09:30:56;;;;;;;5.20;1.15;;;19.50;93.50;;;;;;5064734;28;20267;-68
2021/03/16 09:33:25;;;;;;;1.77;1.00;;;19.70;93.10;;;;;;5068063;28;20033;-69
2021/03/16 09:35:58;;;;;;;4.55;1.17;;;19.70;93.00;;;;;;5065924;28;20062;-69
2021/03/16 09:38:26;;;;;;;1.85;1.33;;;19.70;93.10;;;;;;5062381;28;20097;-69
2021/03/16 09:40:54;;;;;;;2.75;1.15;;;19.80;92.90;;;;;;5063823;28;20146;-69
2021/03/16 09:43:26;;;;;;;3.67;0.95;;;19.80;92.90;;;;;;5069698;28;20024;-69
2021/03/16 09:45:58;;;;;;;5.70;1.33;;;19.70;92.90;;;;;;5063745;28;20586;-68
2021/03/16 09:48:27;;;;;;;7.18;3.35;;;19.70;93.00;;;;;;5064153;28;20044;-69
2021/03/16 09:51:14;;;;;;;6.60;2.28;;;19.80;93.00;;;;;;5061275;28;20555;-68
2021/03/16 09:53:46;;;;;;;6.07;1.27;;;19.80;92.60;;;;;;5064456;28;20437;-68
2021/03/16 09:56:14;;;;;;;6.93;1.67;;;19.70;92.40;;;;;;5066949;28;20036;-69
2021/03/16 09:58:48;;;;;;;3.60;1.77;;;19.60;92.70;;;;;;5062383;28;20047;-68
2021/03/16 10:01:21;;;;;;;5.22;1.45;;;19.60;92.40;;;;;;5065969;28;20058;-68
2021/03/16 10:04:02;;;;;;;8.55;2.63;;;19.50;92.50;;;;;;5061791;28;20028;-68
2021/03/16 10:06:34;;;;;;;7.97;1.13;;;19.50;92.50;;;;;;5058653;28;20028;-67
2021/03/16 10:09:14;;;;;;;7.03;2.92;;;19.60;92.50;;;;;;5060422;28;20028;-68
2021/03/16 10:11:42;;;;;;;3.47;1.13;;;19.50;92.60;;;;;;5070282;28;20478;-68
2021/03/16 10:14:10;;;;;;;6.82;2.45;;;19.50;92.50;;;;;;5067340;28;20051;-69
2021/03/16 10:16:41;;;;;;;5.78;2.20;;;19.50;92.50;;;;;;5051966;28;20039;-68
2021/03/16 10:19:18;;;;;;;6.53;2.03;;;19.50;92.60;;;;;;5036281;28;20025;-69
2021/03/16 10:21:46;;;;;;;3.28;0.90;;;19.50;92.60;;;;;;5065502;28;20032;-68
2021/03/16 10:24:15;;;;;;;6.63;1.92;;;19.50;92.50;;;;;;5061828;28;20056;-68
2021/03/16 10:26:53;;;;;;;11.38;2.00;;;19.50;92.60;;;;;;5057900;28;20395;-68
2021/03/16 10:29:22;;;;;;;5.47;1.05;;;19.50;92.20;;;;;;5045372;28;20052;-68
2021/03/16 10:31:52;;;;;;;10.63;2.90;;;19.40;92.50;;;;;;5057408;28;20070;-68
2021/03/16 10:34:19;;;;;;;3.63;1.27;;;19.40;92.80;;;;;;5049699;28;20159;-68
2021/03/16 10:36:47;;;;;;;4.20;0.93;;;19.40;92.60;;;;;;5065027;28;20036;-68
2021/03/16 10:39:14;;;;;;;6.70;1.52;;;19.50;92.50;;;;;;5070254;28;20067;-70
2021/03/16 10:41:41;;;;;;;5.10;1.15;;;19.50;92.20;;;;;;5068892;28;20110;-68
2021/03/16 10:44:09;;;;;;;6.80;1.73;;;19.60;91.90;;;;;;5071731;28;20025;-68
2021/03/16 10:46:37;;;;;;;5.32;1.52;;;19.70;91.80;;;;;;5060548;28;20082;-68
2021/03/16 10:49:05;;;;;;;10.35;2.13;;;19.80;91.50;;;;;;5068681;28;20071;-68
2021/03/16 10:51:34;;;;;;;5.03;1.70;;;19.90;91.20;;;;;;5061175;28;20027;-68
2021/03/16 10:54:01;;;;;;;7.47;1.75;;;19.90;91.50;;;;;;5066932;28;20032;-69
2021/03/16 10:56:29;;;;;;;6.28;2.15;;;19.90;91.30;;;;;;5075881;28;20024;-68
2021/03/16 10:58:57;;;;;;;5.68;1.65;;;19.90;91.10;;;;;;5068756;28;20033;-69
2021/03/16 11:01:25;;;;;;;11.23;2.58;;;19.90;91.10;;;;;;5070267;28;20032;-69
2021/03/16 11:03:53;;;;;;;8.07;2.08;;;19.90;91.20;;;;;;5080182;28;20150;-69
2021/03/16 11:06:20;;;;;;;7.05;1.58;;;19.80;91.50;;;;;;5069733;28;20032;-69
2021/03/16 11:08:48;;;;;;;8.02;1.85;;;19.80;91.80;;;;;;5064620;28;20157;-68
2021/03/16 11:11:16;;;;;;;5.82;1.40;;;19.70;91.60;;;;;;5070592;28;20478;-69
2021/03/16 11:13:44;;;;;;;5.43;1.10;;;19.70;92.00;;;;;;5070357;28;20052;-69
2021/03/16 11:16:11;;;;;;;4.80;1.35;;;19.60;92.10;;;;;;5050405;28;20058;-69
2021/03/16 11:18:38;;;;;;;8.88;2.42;;;19.70;91.90;;;;;;5065126;28;20484;-69
2021/03/16 11:21:06;;;;;;;5.40;1.33;;;19.80;91.80;;;;;;5062662;28;21925;-70
2021/03/16 11:23:33;;;;;;;8.20;1.63;;;19.70;91.80;;;;;;5058227;28;20026;-69
2021/03/16 11:26:01;;;;;;;9.68;1.73;;;19.80;91.80;;;;;;5056654;28;21573;-69
2021/03/16 11:28:30;;;;;;;7.07;1.33;;;19.80;91.80;;;;;;5054482;28;20040;-68
2021/03/16 11:30:57;;;;;;;6.65;1.42;;;19.80;91.80;;;;;;5057134;28;20048;-69
2021/03/16 11:33:24;;;;;;;8.50;1.85;;;19.90;91.60;;;;;;5058154;28;20079;-68
2021/03/16 11:35:52;;;;;;;8.38;2.40;;;19.90;91.50;;;;;;5056488;28;20089;-69
2021/03/16 11:38:20;;;;;;;6.70;1.17;;;19.90;91.30;;;;;;5059359;28;20028;-70
2021/03/16 11:40:49;;;;;;;12.05;2.10;;;19.90;91.20;;;;;;5062288;28;20186;-68
2021/03/16 11:43:17;;;;;;;5.93;1.50;;;20.00;91.10;;;;;;5055540;28;20129;-68
2021/03/16 11:45:44;;;;;;;10.57;2.05;;;20.00;91.20;;;;;;5064397;28;21070;-68
2021/03/16 11:48:12;;;;;;;8.50;2.78;;;19.90;91.50;;;;;;5053549;28;20039;-69
2021/03/16 11:50:39;;;;;;;10.98;2.05;;;19.80;91.70;;;;;;5055931;28;20024;-68
2021/03/16 11:53:09;;;;;;;9.75;1.63;;;19.80;91.70;;;;;;5069670;28;20115;-68
2021/03/16 11:55:36;;;;;;;8.80;1.55;;;19.90;91.50;;;;;;5059979;28;20058;-68
2021/03/16 11:58:03;;;;;;;8.13;2.00;;;20.00;91.10;;;;;;5062129;28;20016;-69
2021/03/16 12:00:31;;;;;;;10.48;2.08;;;20.00;90.80;;;;;;5062650;28;20034;-68
2021/03/16 12:03:01;;;;;;;10.07;1.95;;;20.10;90.80;;;;;;5069762;28;20471;-68
2021/03/16 12:05:28;;;;;;;7.18;1.92;;;20.10;90.60;;;;;;5069622;28;20544;-68
2021/03/16 12:07:56;;;;;;;6.95;1.75;;;20.10;90.40;;;;;;5063292;28;21511;-68
2021/03/16 12:10:23;;;;;;;11.38;2.78;;;20.10;90.40;;;;;;5074052;28;20028;-68
2021/03/16 12:12:51;;;;;;;13.35;2.28;;;20.10;90.40;;;;;;5067265;28;20036;-67
2021/03/16 12:15:22;;;;;;;8.35;1.70;;;20.30;90.00;;;;;;5065847;28;20040;-68
2021/03/16 12:17:49;;;;;;;11.40;1.55;;;20.20;90.10;;;;;;5063685;28;20043;-68
2021/03/16 12:20:17;;;;;;;10.57;2.90;;;20.10;90.30;;;;;;5060224;28;20909;-67
2021/03/16 12:22:45;;;;;;;11.80;2.88;;;20.00;90.60;;;;;;5066010;28;20041;-68
2021/03/16 12:25:13;;;;;;;12.70;3.45;;;19.90;90.80;;;;;;5065026;28;20051;-68
2021/03/16 12:27:40;;;;;;;12.82;2.45;;;19.90;90.90;;;;;;5053851;28;20021;-72
2021/03/16 12:30:09;;;;;;;13.55;2.67;;;19.90;90.70;;;;;;5066097;28;20412;-69
2021/03/16 12:32:38;;;;;;;14.55;2.80;;;19.80;90.80;;;;;;5060850;28;20043;-71
2021/03/16 12:35:12;;;;;;;11.73;3.25;;;19.60;91.10;;;;;;5070456;28;20490;-74
2021/03/16 12:37:41;;;;;;;12.80;2.22;;;19.50;91.40;;;;;;5064304;28;20033;-72
2021/03/16 12:40:11;;;;;;;11.50;1.73;;;19.50;91.30;;;;;;5060922;28;20044;-74
2021/03/16 12:42:39;;;;;;;20.98;2.85;;;19.50;91.60;;;;;;5068841;28;20029;-75
2021/03/16 12:45:08;;;;;;;13.82;2.20;;;19.40;91.50;;;;;;5072303;28;20482;-73
2021/03/16 12:47:36;;;;;;;14.13;2.28;;;19.40;91.60;;;;;;5055593;28;20032;-72
2021/03/16 12:50:06;;;;;;;9.20;2.75;;;19.30;91.60;;;;;;5068124;28;20024;-74
2021/03/16 12:52:33;;;;;;;17.45;2.65;;;19.30;91.80;;;;;;5061510;28;20028;-73
2021/03/16 12:55:01;;;;;;;12.45;2.65;;;19.30;91.90;;;;;;5067251;28;20037;-73
2021/03/16 12:57:28;;;;;;;14.30;2.35;;;19.20;91.70;;;;;;5058125;28;20024;-72